createdAt,value
2022-12-11T00:00:15.296Z,0.00
2022-12-11T00:01:15.304Z,0.00
2022-12-11T00:02:15.370Z,0.00
2022-12-11T00:03:16.258Z,0.00
2022-12-11T00:04:15.279Z,0.00
2022-12-11T00:05:15.234Z,0.00
2022-12-11T00:06:15.268Z,0.00
2022-12-11T00:07:15.201Z,0.00
2022-12-11T00:08:15.241Z,0.00
2022-12-11T00:09:15.178Z,0.00
2022-12-11T00:10:15.206Z,0.00
2022-12-11T00:11:15.169Z,0.00
2022-12-11T00:12:15.139Z,0.00
2022-12-11T00:13:15.132Z,0.00
2022-12-11T00:14:15.120Z,0.00
2022-12-11T00:15:15.120Z,0.00
2022-12-11T00:16:15.125Z,0.00
2022-12-11T00:17:15.081Z,0.00
2022-12-11T00:18:15.059Z,0.00
2022-12-11T00:19:15.050Z,0.00
2022-12-11T00:20:15.054Z,0.00
2022-12-11T00:21:15.019Z,0.00
2022-12-11T00:22:15.009Z,0.00
2022-12-11T00:23:14.998Z,0.00
2022-12-11T00:24:14.990Z,0.00
2022-12-11T00:25:14.989Z,0.00
2022-12-11T00:26:14.961Z,0.00
2022-12-11T00:27:14.947Z,0.00
2022-12-11T00:28:14.933Z,0.00
2022-12-11T00:29:14.917Z,0.00
2022-12-11T00:30:14.917Z,0.00
2022-12-11T00:31:14.919Z,0.00
2022-12-11T00:32:14.898Z,0.00
2022-12-11T00:33:14.873Z,0.00
2022-12-11T00:34:14.849Z,0.00
2022-12-11T00:35:14.855Z,0.00
2022-12-11T00:36:14.840Z,0.00
2022-12-11T00:37:14.898Z,0.00
2022-12-11T00:38:14.800Z,0.00
2022-12-11T00:39:14.788Z,0.00
2022-12-11T00:40:14.798Z,0.00
2022-12-11T00:41:14.790Z,0.00
2022-12-11T00:42:14.750Z,0.00
2022-12-11T00:43:14.739Z,0.00
2022-12-11T00:44:14.719Z,0.00
2022-12-11T00:45:14.734Z,0.00
2022-12-11T00:46:14.730Z,0.00
2022-12-11T00:47:14.710Z,0.00
2022-12-11T00:48:14.665Z,0.00
2022-12-11T00:49:14.663Z,0.00
2022-12-11T00:50:14.668Z,0.00
2022-12-11T00:51:14.644Z,0.00
2022-12-11T00:52:14.611Z,0.00
2022-12-11T00:53:14.607Z,0.00
2022-12-11T00:54:14.590Z,0.00
2022-12-11T00:55:14.609Z,0.00
2022-12-11T00:56:14.560Z,0.00
2022-12-11T00:57:14.553Z,0.00
2022-12-11T00:58:14.537Z,0.00
2022-12-11T00:59:14.530Z,0.00
2022-12-11T01:00:14.516Z,0.00
2022-12-11T01:01:14.537Z,0.00
2022-12-11T01:02:14.484Z,0.00
2022-12-11T01:03:14.559Z,0.00
2022-12-11T01:04:14.461Z,0.00
2022-12-11T01:05:14.461Z,0.00
2022-12-11T01:06:14.448Z,0.00
2022-12-11T01:07:14.421Z,0.00
2022-12-11T01:08:14.426Z,0.00
2022-12-11T01:09:14.393Z,0.00
2022-12-11T01:10:14.458Z,0.00
2022-12-11T01:11:14.406Z,0.00
2022-12-11T01:12:14.361Z,0.00
2022-12-11T01:13:14.345Z,0.00
2022-12-11T01:14:14.347Z,0.00
2022-12-11T01:15:14.323Z,0.00
2022-12-11T01:16:14.353Z,0.00
2022-12-11T01:17:14.310Z,0.00
2022-12-11T01:18:14.277Z,0.00
2022-12-11T01:19:14.272Z,0.00
2022-12-11T01:20:14.251Z,0.00
2022-12-11T01:21:14.249Z,0.00
2022-12-11T01:22:14.252Z,0.00
2022-12-11T01:23:14.213Z,0.00
2022-12-11T01:24:14.200Z,0.00
2022-12-11T01:25:14.191Z,0.00
2022-12-11T01:26:14.199Z,0.00
2022-12-11T01:27:14.160Z,0.00
2022-12-11T01:28:14.149Z,0.00
2022-12-11T01:29:14.139Z,0.00
2022-12-11T01:30:14.122Z,0.00
2022-12-11T01:31:14.173Z,0.00
2022-12-11T01:32:14.090Z,0.00
2022-12-11T01:33:14.092Z,0.00
2022-12-11T01:34:14.068Z,0.00
2022-12-11T01:35:14.061Z,0.00
2022-12-11T01:36:14.071Z,0.00
2022-12-11T01:37:14.029Z,0.00
2022-12-11T01:38:14.033Z,0.00
2022-12-11T01:39:14.012Z,0.00
2022-12-11T01:40:13.984Z,0.00
2022-12-11T01:41:14.017Z,0.00
2022-12-11T01:42:14.014Z,0.00
2022-12-11T01:43:13.953Z,0.00
2022-12-11T01:44:13.933Z,0.00
2022-12-11T01:45:13.932Z,0.00
2022-12-11T01:46:13.988Z,0.00
2022-12-11T01:47:13.903Z,0.00
2022-12-11T01:48:13.884Z,0.00
2022-12-11T01:49:13.862Z,0.00
2022-12-11T01:50:13.853Z,0.00
2022-12-11T01:51:13.881Z,0.00
2022-12-11T01:52:13.832Z,0.00
2022-12-11T01:53:13.825Z,0.00
2022-12-11T01:54:13.804Z,0.00
2022-12-11T01:55:13.804Z,0.00
2022-12-11T01:56:13.792Z,0.00
2022-12-11T01:57:13.773Z,0.00
2022-12-11T01:58:13.752Z,0.00
2022-12-11T01:59:13.756Z,0.00
2022-12-11T02:00:13.724Z,0.00
2022-12-11T02:01:13.775Z,0.00
2022-12-11T02:02:13.738Z,0.00
2022-12-11T02:03:13.692Z,0.00
2022-12-11T02:04:13.675Z,0.00
2022-12-11T02:05:13.770Z,0.00
2022-12-11T02:06:13.672Z,0.00
2022-12-11T02:07:13.642Z,0.00
2022-12-11T02:08:13.670Z,0.00
2022-12-11T02:09:13.622Z,0.00
2022-12-11T02:10:13.605Z,0.00
2022-12-11T02:11:13.615Z,0.00
2022-12-11T02:12:13.576Z,0.00
2022-12-11T02:13:13.564Z,0.00
2022-12-11T02:14:13.561Z,0.00
2022-12-11T02:15:13.633Z,0.00
2022-12-11T02:16:13.586Z,0.00
2022-12-11T02:17:13.515Z,0.00
2022-12-11T02:18:13.496Z,0.00
2022-12-11T02:19:13.494Z,0.00
2022-12-11T02:20:13.481Z,0.00
2022-12-11T02:21:13.485Z,0.00
2022-12-11T02:22:13.466Z,0.00
2022-12-11T02:23:13.436Z,0.00
2022-12-11T02:24:13.416Z,0.00
2022-12-11T02:25:13.537Z,0.00
2022-12-11T02:26:13.383Z,0.00
2022-12-11T02:27:13.408Z,0.00
2022-12-11T02:28:13.398Z,0.00
2022-12-11T02:29:13.355Z,0.00
2022-12-11T02:30:13.345Z,0.00
2022-12-11T02:31:13.346Z,0.00
2022-12-11T02:32:13.339Z,0.00
2022-12-11T02:33:13.303Z,0.00
2022-12-11T02:34:13.286Z,0.00
2022-12-11T02:35:13.598Z,0.00
2022-12-11T02:36:13.254Z,0.00
2022-12-11T02:37:13.271Z,0.00
2022-12-11T02:38:13.233Z,0.00
2022-12-11T02:39:13.223Z,0.00
2022-12-11T02:40:13.222Z,0.00
2022-12-11T02:41:13.210Z,0.00
2022-12-11T02:42:13.205Z,0.00
2022-12-11T02:43:13.174Z,0.00
2022-12-11T02:44:13.152Z,0.00
2022-12-11T02:45:13.437Z,0.00
2022-12-11T02:46:13.149Z,0.00
2022-12-11T02:47:13.145Z,0.00
2022-12-11T02:48:13.103Z,0.00
2022-12-11T02:49:13.097Z,0.00
2022-12-11T02:50:13.082Z,0.00
2022-12-11T02:51:13.073Z,0.00
2022-12-11T02:52:13.072Z,0.00
2022-12-11T02:53:13.044Z,0.00
2022-12-11T02:54:13.024Z,0.00
2022-12-11T02:55:13.274Z,0.00
2022-12-11T02:56:13.007Z,0.00
2022-12-11T02:57:13.005Z,0.00
2022-12-11T02:58:12.993Z,0.00
2022-12-11T02:59:12.964Z,0.00
2022-12-11T03:00:12.946Z,0.00
2022-12-11T03:01:13.048Z,0.00
2022-12-11T03:02:12.968Z,0.00
2022-12-11T03:03:12.914Z,0.00
2022-12-11T03:04:12.895Z,0.00
2022-12-11T03:05:13.096Z,0.00
2022-12-11T03:06:12.868Z,0.00
2022-12-11T03:07:12.886Z,0.00
2022-12-11T03:08:12.891Z,0.00
2022-12-11T03:09:12.834Z,0.00
2022-12-11T03:10:12.824Z,0.00
2022-12-11T03:11:12.813Z,0.00
2022-12-11T03:12:12.816Z,0.00
2022-12-11T03:13:12.783Z,0.00
2022-12-11T03:14:12.765Z,0.00
2022-12-11T03:15:13.051Z,0.00
2022-12-11T03:16:12.810Z,0.00
2022-12-11T03:17:12.755Z,0.00
2022-12-11T03:18:12.715Z,0.00
2022-12-11T03:19:12.706Z,0.00
2022-12-11T03:20:12.688Z,0.00
2022-12-11T03:21:12.687Z,0.00
2022-12-11T03:22:12.665Z,0.00
2022-12-11T03:23:12.672Z,0.00
2022-12-11T03:24:12.634Z,0.00
2022-12-11T03:25:12.862Z,0.00
2022-12-11T03:26:12.635Z,0.00
2022-12-11T03:27:12.597Z,0.00
2022-12-11T03:28:12.599Z,0.00
2022-12-11T03:29:12.577Z,0.00
2022-12-11T03:30:12.577Z,0.00
2022-12-11T03:31:12.586Z,0.00
2022-12-11T03:32:12.534Z,0.00
2022-12-11T03:33:12.528Z,0.00
2022-12-11T03:34:12.518Z,0.00
2022-12-11T03:35:12.969Z,0.00
2022-12-11T03:36:12.485Z,0.00
2022-12-11T03:37:12.478Z,0.00
2022-12-11T03:38:12.454Z,0.00
2022-12-11T03:39:12.447Z,0.00
2022-12-11T03:40:12.445Z,0.00
2022-12-11T03:41:12.421Z,0.00
2022-12-11T03:42:12.416Z,0.00
2022-12-11T03:43:12.398Z,0.00
2022-12-11T03:44:12.375Z,0.00
2022-12-11T03:45:12.537Z,0.00
2022-12-11T03:46:12.380Z,0.00
2022-12-11T03:47:12.334Z,0.00
2022-12-11T03:48:12.317Z,0.00
2022-12-11T03:49:12.316Z,0.00
2022-12-11T03:50:12.305Z,0.00
2022-12-11T03:51:12.307Z,0.00
2022-12-11T03:52:12.265Z,0.00
2022-12-11T03:53:12.263Z,0.00
2022-12-11T03:54:12.246Z,0.00
2022-12-11T03:55:12.683Z,0.00
2022-12-11T03:56:12.219Z,0.00
2022-12-11T03:57:12.219Z,0.00
2022-12-11T03:58:12.196Z,0.00
2022-12-11T03:59:12.187Z,0.00
2022-12-11T04:00:12.189Z,0.00
2022-12-11T04:01:12.167Z,0.00
2022-12-11T04:02:12.197Z,0.00
2022-12-11T04:03:13.939Z,0.00
2022-12-11T04:04:12.281Z,0.00
2022-12-11T04:05:12.404Z,0.00
2022-12-11T04:06:12.151Z,0.00
2022-12-11T04:07:12.086Z,0.00
2022-12-11T04:08:12.147Z,0.00
2022-12-11T04:09:12.084Z,0.00
2022-12-11T04:10:12.036Z,0.00
2022-12-11T04:11:12.065Z,0.00
2022-12-11T04:12:12.018Z,0.00
2022-12-11T04:13:12.020Z,0.00
2022-12-11T04:14:11.996Z,0.00
2022-12-11T04:15:12.228Z,0.00
2022-12-11T04:16:12.020Z,0.00
2022-12-11T04:17:11.955Z,0.00
2022-12-11T04:18:11.934Z,0.00
2022-12-11T04:19:11.926Z,0.00
2022-12-11T04:20:11.927Z,0.00
2022-12-11T04:21:11.908Z,0.00
2022-12-11T04:22:11.885Z,0.00
2022-12-11T04:23:11.877Z,0.00
2022-12-11T04:24:11.866Z,0.00
2022-12-11T04:25:12.176Z,0.00
2022-12-11T04:26:11.827Z,0.00
2022-12-11T04:27:11.827Z,0.00
2022-12-11T04:28:11.811Z,0.00
2022-12-11T04:29:11.798Z,0.00
2022-12-11T04:30:11.806Z,0.00
2022-12-11T04:31:11.794Z,0.00
2022-12-11T04:32:11.762Z,0.00
2022-12-11T04:33:11.739Z,0.00
2022-12-11T04:34:11.741Z,0.00
2022-12-11T04:35:12.026Z,0.00
2022-12-11T04:36:11.709Z,0.00
2022-12-11T04:37:11.688Z,0.00
2022-12-11T04:38:11.689Z,0.00
2022-12-11T04:39:11.683Z,0.00
2022-12-11T04:40:11.675Z,0.00
2022-12-11T04:41:11.645Z,0.00
2022-12-11T04:42:11.649Z,0.00
2022-12-11T04:43:11.613Z,0.00
2022-12-11T04:44:11.606Z,0.00
2022-12-11T04:45:11.771Z,0.00
2022-12-11T04:46:11.620Z,0.00
2022-12-11T04:47:11.558Z,0.00
2022-12-11T04:48:11.548Z,0.00
2022-12-11T04:49:11.536Z,0.00
2022-12-11T04:50:11.548Z,0.00
2022-12-11T04:51:11.505Z,0.00
2022-12-11T04:52:11.497Z,0.00
2022-12-11T04:53:11.503Z,0.00
2022-12-11T04:54:11.469Z,0.00
2022-12-11T04:55:11.680Z,0.00
2022-12-11T04:56:11.480Z,0.00
2022-12-11T04:57:11.427Z,0.00
2022-12-11T04:58:11.419Z,0.00
2022-12-11T04:59:11.397Z,0.00
2022-12-11T05:00:11.412Z,0.00
2022-12-11T05:01:11.415Z,0.00
2022-12-11T05:02:11.367Z,0.00
2022-12-11T05:03:11.394Z,0.00
2022-12-11T05:04:11.337Z,0.00
2022-12-11T05:05:11.541Z,0.00
2022-12-11T05:06:11.323Z,0.00
2022-12-11T05:07:11.297Z,0.00
2022-12-11T05:08:11.356Z,0.00
2022-12-11T05:09:11.268Z,0.00
2022-12-11T05:10:11.276Z,0.00
2022-12-11T05:11:11.253Z,0.00
2022-12-11T05:12:11.238Z,0.00
2022-12-11T05:13:11.222Z,0.00
2022-12-11T05:14:11.208Z,0.00
2022-12-11T05:15:11.554Z,0.00
2022-12-11T05:16:11.239Z,0.00
2022-12-11T05:17:11.168Z,0.00
2022-12-11T05:18:11.156Z,0.00
2022-12-11T05:19:11.157Z,0.00
2022-12-11T05:20:11.146Z,0.00
2022-12-11T05:21:11.126Z,0.00
2022-12-11T05:22:11.106Z,0.00
2022-12-11T05:23:11.089Z,0.00
2022-12-11T05:24:11.098Z,0.00
2022-12-11T05:25:11.356Z,0.00
2022-12-11T05:26:11.058Z,0.00
2022-12-11T05:27:11.038Z,0.00
2022-12-11T05:28:11.028Z,0.00
2022-12-11T05:29:11.043Z,0.00
2022-12-11T05:30:11.005Z,0.00
2022-12-11T05:31:11.073Z,0.00
2022-12-11T05:32:10.982Z,0.00
2022-12-11T05:33:10.959Z,0.00
2022-12-11T05:34:10.950Z,0.00
2022-12-11T05:35:11.118Z,0.00
2022-12-11T05:36:10.928Z,0.00
2022-12-11T05:37:10.909Z,0.00
2022-12-11T05:38:10.901Z,0.00
2022-12-11T05:39:10.884Z,0.00
2022-12-11T05:40:10.896Z,0.00
2022-12-11T05:41:10.859Z,0.00
2022-12-11T05:42:10.840Z,0.00
2022-12-11T05:43:10.833Z,0.00
2022-12-11T05:44:10.851Z,0.00
2022-12-11T05:45:10.992Z,0.00
2022-12-11T05:46:10.830Z,0.00
2022-12-11T05:47:10.782Z,0.00
2022-12-11T05:48:10.770Z,0.00
2022-12-11T05:49:10.769Z,0.00
2022-12-11T05:50:10.740Z,0.00
2022-12-11T05:51:10.727Z,0.00
2022-12-11T05:52:10.718Z,0.00
2022-12-11T05:53:10.698Z,0.00
2022-12-11T05:54:10.709Z,0.00
2022-12-11T05:55:11.005Z,0.00
2022-12-11T05:56:10.667Z,0.00
2022-12-11T05:57:10.649Z,0.00
2022-12-11T05:58:10.640Z,0.00
2022-12-11T05:59:10.637Z,0.00
2022-12-11T06:00:10.617Z,0.00
2022-12-11T06:01:10.601Z,0.00
2022-12-11T06:02:10.674Z,0.00
2022-12-11T06:03:10.660Z,0.00
2022-12-11T06:04:10.578Z,0.00
2022-12-11T06:05:10.813Z,0.00
2022-12-11T06:06:10.538Z,0.00
2022-12-11T06:07:10.526Z,0.00
2022-12-11T06:08:10.599Z,0.00
2022-12-11T06:09:10.510Z,0.00
2022-12-11T06:10:10.479Z,0.00
2022-12-11T06:11:10.459Z,0.00
2022-12-11T06:12:10.462Z,0.00
2022-12-11T06:13:10.437Z,0.00
2022-12-11T06:14:10.450Z,0.00
2022-12-11T06:15:10.820Z,0.00
2022-12-11T06:16:10.433Z,0.00
2022-12-11T06:17:10.389Z,0.00
2022-12-11T06:18:10.385Z,0.00
2022-12-11T06:19:10.383Z,0.00
2022-12-11T06:20:10.354Z,0.00
2022-12-11T06:21:10.338Z,0.00
2022-12-11T06:22:10.332Z,0.00
2022-12-11T06:23:10.317Z,0.00
2022-12-11T06:24:10.324Z,0.00
2022-12-11T06:25:10.511Z,0.00
2022-12-11T06:26:10.278Z,0.00
2022-12-11T06:27:10.272Z,0.00
2022-12-11T06:28:10.251Z,0.00
2022-12-11T06:29:12.947Z,0.00
2022-12-11T06:30:10.219Z,0.00
2022-12-11T06:31:10.273Z,0.00
2022-12-11T06:32:10.201Z,0.00
2022-12-11T06:33:10.179Z,0.00
2022-12-11T06:34:10.192Z,0.00
2022-12-11T06:35:10.379Z,0.00
2022-12-11T06:36:10.148Z,0.00
2022-12-11T06:37:10.129Z,0.00
2022-12-11T06:38:10.120Z,0.00
2022-12-11T06:39:10.111Z,0.00
2022-12-11T06:40:10.102Z,0.00
2022-12-11T06:41:10.090Z,0.00
2022-12-11T06:42:10.069Z,0.00
2022-12-11T06:43:10.061Z,0.00
2022-12-11T06:44:10.061Z,0.00
2022-12-11T06:45:10.392Z,0.00
2022-12-11T06:46:10.089Z,0.00
2022-12-11T06:47:10.003Z,0.00
2022-12-11T06:48:09.993Z,0.00
2022-12-11T06:49:09.992Z,0.00
2022-12-11T06:50:09.981Z,0.00
2022-12-11T06:51:09.959Z,0.00
2022-12-11T06:52:12.520Z,0.00
2022-12-11T06:53:10.921Z,0.00
2022-12-11T06:54:09.943Z,0.00
2022-12-11T06:55:10.282Z,0.00
2022-12-11T06:56:09.951Z,0.00
2022-12-11T06:57:09.927Z,0.00
2022-12-11T06:58:09.853Z,0.00
2022-12-11T06:59:09.861Z,0.00
2022-12-11T07:00:09.854Z,4.00
2022-12-11T07:01:09.866Z,4.00
2022-12-11T07:02:09.862Z,0.00
2022-12-11T07:03:09.791Z,0.00
2022-12-11T07:04:09.800Z,0.00
2022-12-11T07:05:10.023Z,4.00
2022-12-11T07:06:09.756Z,4.00
2022-12-11T07:07:09.744Z,4.00
2022-12-11T07:08:09.812Z,4.00
2022-12-11T07:09:09.733Z,4.00
2022-12-11T07:10:09.712Z,4.00
2022-12-11T07:11:09.683Z,4.00
2022-12-11T07:12:09.680Z,4.00
2022-12-11T07:13:09.672Z,4.00
2022-12-11T07:14:09.693Z,8.00
2022-12-11T07:15:09.972Z,8.00
2022-12-11T07:16:09.674Z,8.00
2022-12-11T07:17:09.613Z,8.00
2022-12-11T07:18:09.612Z,12.00
2022-12-11T07:19:09.581Z,12.00
2022-12-11T07:20:09.595Z,12.00
2022-12-11T07:21:09.564Z,12.00
2022-12-11T07:22:09.552Z,16.00
2022-12-11T07:23:09.533Z,16.00
2022-12-11T07:24:09.522Z,20.00
2022-12-11T07:25:09.844Z,24.00
2022-12-11T07:26:09.593Z,20.00
2022-12-11T07:27:09.473Z,24.00
2022-12-11T07:28:13.663Z,24.00
2022-12-11T07:29:10.452Z,24.00
2022-12-11T07:30:09.489Z,32.00
2022-12-11T07:31:09.424Z,32.00
2022-12-11T07:32:09.494Z,32.00
2022-12-11T07:33:09.402Z,36.00
2022-12-11T07:34:09.394Z,36.00
2022-12-11T07:35:09.866Z,40.00
2022-12-11T07:36:09.371Z,44.00
2022-12-11T07:37:09.349Z,40.00
2022-12-11T07:38:09.348Z,44.00
2022-12-11T07:39:09.322Z,48.00
2022-12-11T07:40:09.332Z,52.00
2022-12-11T07:41:09.307Z,56.00
2022-12-11T07:42:09.285Z,60.00
2022-12-11T07:43:09.273Z,64.00
2022-12-11T07:44:09.279Z,72.00
2022-12-11T07:45:09.466Z,76.00
2022-12-11T07:46:09.285Z,76.00
2022-12-11T07:47:09.213Z,76.00
2022-12-11T07:48:09.213Z,80.00
2022-12-11T07:49:09.212Z,84.00
2022-12-11T07:50:09.183Z,88.00
2022-12-11T07:51:09.169Z,88.00
2022-12-11T07:52:09.163Z,84.00
2022-12-11T07:53:09.146Z,80.00
2022-12-11T07:54:09.149Z,88.00
2022-12-11T07:55:09.498Z,100.00
2022-12-11T07:56:09.109Z,108.00
2022-12-11T07:57:13.971Z,108.00
2022-12-11T07:58:10.084Z,108.00
2022-12-11T07:59:09.082Z,112.00
2022-12-11T08:00:09.054Z,116.00
2022-12-11T08:01:09.066Z,108.00
2022-12-11T08:02:09.062Z,108.00
2022-12-11T08:03:09.023Z,104.00
2022-12-11T08:04:09.022Z,108.00
2022-12-11T08:05:09.198Z,108.00
2022-12-11T08:06:08.984Z,120.00
2022-12-11T08:07:08.962Z,120.00
2022-12-11T08:08:08.980Z,108.00
2022-12-11T08:09:08.947Z,108.00
2022-12-11T08:10:08.930Z,112.00
2022-12-11T08:11:08.902Z,120.00
2022-12-11T08:12:08.891Z,124.00
2022-12-11T08:13:08.872Z,136.00
2022-12-11T08:14:08.890Z,140.00
2022-12-11T08:15:09.156Z,136.00
2022-12-11T08:16:08.843Z,140.00
2022-12-11T08:17:08.829Z,144.00
2022-12-11T08:18:08.816Z,156.00
2022-12-11T08:19:08.816Z,176.00
2022-12-11T08:20:08.784Z,172.00
2022-12-11T08:21:08.772Z,184.00
2022-12-11T08:22:08.764Z,200.00
2022-12-11T08:23:08.751Z,196.00
2022-12-11T08:24:08.758Z,188.00
2022-12-11T08:25:08.939Z,180.00
2022-12-11T08:26:08.722Z,180.00
2022-12-11T08:27:08.695Z,180.00
2022-12-11T08:28:08.691Z,184.00
2022-12-11T08:29:08.685Z,176.00
2022-12-11T08:30:08.667Z,172.00
2022-12-11T08:31:08.680Z,176.00
2022-12-11T08:32:12.218Z,184.00
2022-12-11T08:33:08.613Z,184.00
2022-12-11T08:34:08.627Z,188.00
2022-12-11T08:35:08.796Z,200.00
2022-12-11T08:36:08.578Z,204.00
2022-12-11T08:37:08.570Z,200.00
2022-12-11T08:38:08.554Z,196.00
2022-12-11T08:39:08.555Z,208.00
2022-12-11T08:40:08.524Z,220.00
2022-12-11T08:41:08.517Z,236.00
2022-12-11T08:42:08.505Z,252.00
2022-12-11T08:43:08.486Z,256.00
2022-12-11T08:44:12.951Z,272.00
2022-12-11T08:45:09.876Z,288.00
2022-12-11T08:46:08.511Z,280.00
2022-12-11T08:47:08.443Z,256.00
2022-12-11T08:48:08.424Z,244.00
2022-12-11T08:49:08.437Z,224.00
2022-12-11T08:50:08.395Z,208.00
2022-12-11T08:51:08.385Z,204.00
2022-12-11T08:52:08.375Z,204.00
2022-12-11T08:53:08.373Z,208.00
2022-12-11T08:54:08.357Z,204.00
2022-12-11T08:55:08.657Z,204.00
2022-12-11T08:56:08.324Z,216.00
2022-12-11T08:57:08.305Z,240.00
2022-12-11T08:58:08.292Z,236.00
2022-12-11T08:59:08.302Z,220.00
2022-12-11T09:00:08.273Z,216.00
2022-12-11T09:01:08.331Z,212.00
2022-12-11T09:02:08.262Z,224.00
2022-12-11T09:03:12.645Z,236.00
2022-12-11T09:04:08.240Z,248.00
2022-12-11T09:05:08.575Z,268.00
2022-12-11T09:06:08.195Z,284.00
2022-12-11T09:07:08.175Z,312.00
2022-12-11T09:08:08.223Z,328.00
2022-12-11T09:09:08.175Z,344.00
2022-12-11T09:10:08.138Z,376.00
2022-12-11T09:11:08.125Z,396.00
2022-12-11T09:12:08.105Z,416.00
2022-12-11T09:13:08.115Z,428.00
2022-12-11T09:14:08.401Z,440.00
2022-12-11T09:15:08.130Z,444.00
2022-12-11T09:16:08.160Z,436.00
2022-12-11T09:17:08.049Z,408.00
2022-12-11T09:18:08.037Z,388.00
2022-12-11T09:19:08.035Z,388.00
2022-12-11T09:20:08.016Z,376.00
2022-12-11T09:21:07.994Z,360.00
2022-12-11T09:22:07.988Z,328.00
2022-12-11T09:23:07.965Z,312.00
2022-12-11T09:24:07.974Z,316.00
2022-12-11T09:25:08.038Z,332.00
2022-12-11T09:26:07.929Z,356.00
2022-12-11T09:27:07.928Z,408.00
2022-12-11T09:28:07.904Z,472.00
2022-12-11T09:29:07.915Z,532.00
2022-12-11T09:30:07.878Z,576.00
2022-12-11T09:31:07.930Z,596.00
2022-12-11T09:32:07.862Z,612.00
2022-12-11T09:33:07.854Z,648.00
2022-12-11T09:34:07.844Z,676.00
2022-12-11T09:35:07.855Z,652.00
2022-12-11T09:36:07.794Z,600.00
2022-12-11T09:37:07.788Z,572.00
2022-12-11T09:38:07.773Z,568.00
2022-12-11T09:39:07.776Z,588.00
2022-12-11T09:40:08.095Z,592.00
2022-12-11T09:41:07.740Z,560.00
2022-12-11T09:42:07.724Z,520.00
2022-12-11T09:43:07.713Z,492.00
2022-12-11T09:44:07.693Z,512.00
2022-12-11T09:45:07.718Z,560.00
2022-12-11T09:46:07.714Z,576.00
2022-12-11T09:47:07.657Z,584.00
2022-12-11T09:48:07.636Z,576.00
2022-12-11T09:49:07.635Z,580.00
2022-12-11T09:50:07.635Z,592.00
2022-12-11T09:51:07.605Z,604.00
2022-12-11T09:52:07.591Z,604.00
2022-12-11T09:53:07.584Z,600.00
2022-12-11T09:54:07.556Z,608.00
2022-12-11T09:55:07.573Z,624.00
2022-12-11T09:56:07.536Z,668.00
2022-12-11T09:57:07.527Z,696.00
2022-12-11T09:58:07.516Z,696.00
2022-12-11T09:59:07.504Z,708.00
2022-12-11T10:00:07.506Z,732.00
2022-12-11T10:01:07.547Z,764.00
2022-12-11T10:02:07.465Z,768.00
2022-12-11T10:03:07.456Z,736.00
2022-12-11T10:04:17.149Z,712.00
2022-12-11T10:05:09.499Z,688.00
2022-12-11T10:06:07.409Z,644.00
2022-12-11T10:07:07.397Z,596.00
2022-12-11T10:08:07.425Z,568.00
2022-12-11T10:09:07.379Z,560.00
2022-12-11T10:10:07.380Z,580.00
2022-12-11T10:11:07.356Z,600.00
2022-12-11T10:12:07.341Z,604.00
2022-12-11T10:13:07.343Z,576.00
2022-12-11T10:14:07.317Z,548.00
2022-12-11T10:15:07.382Z,524.00
2022-12-11T10:16:07.321Z,508.00
2022-12-11T10:17:07.287Z,536.00
2022-12-11T10:18:07.264Z,600.00
2022-12-11T10:19:07.260Z,676.00
2022-12-11T10:20:07.251Z,740.00
2022-12-11T10:21:07.258Z,800.00
2022-12-11T10:22:07.230Z,876.00
2022-12-11T10:23:07.187Z,940.00
2022-12-11T10:24:07.178Z,940.00
2022-12-11T10:25:11.965Z,932.00
2022-12-11T10:26:08.158Z,916.00
2022-12-11T10:27:07.168Z,904.00
2022-12-11T10:28:07.117Z,884.00
2022-12-11T10:29:07.126Z,848.00
2022-12-11T10:30:07.128Z,820.00
2022-12-11T10:31:07.171Z,804.00
2022-12-11T10:32:07.067Z,788.00
2022-12-11T10:33:07.087Z,764.00
2022-12-11T10:34:07.038Z,736.00
2022-12-11T10:35:07.055Z,704.00
2022-12-11T10:36:07.025Z,696.00
2022-12-11T10:37:07.007Z,704.00
2022-12-11T10:38:06.989Z,712.00
2022-12-11T10:39:07.017Z,696.00
2022-12-11T10:40:06.993Z,672.00
2022-12-11T10:41:06.951Z,656.00
2022-12-11T10:42:06.950Z,656.00
2022-12-11T10:43:07.022Z,672.00
2022-12-11T10:44:07.538Z,680.00
2022-12-11T10:45:06.948Z,676.00
2022-12-11T10:46:06.935Z,672.00
2022-12-11T10:47:06.886Z,676.00
2022-12-11T10:48:06.877Z,676.00
2022-12-11T10:49:06.860Z,680.00
2022-12-11T10:50:06.851Z,700.00
2022-12-11T10:51:06.841Z,724.00
2022-12-11T10:52:06.798Z,740.00
2022-12-11T10:53:06.937Z,748.00
2022-12-11T10:54:07.551Z,772.00
2022-12-11T10:55:06.781Z,788.00
2022-12-11T10:56:06.767Z,812.00
2022-12-11T10:57:06.768Z,824.00
2022-12-11T10:58:06.729Z,820.00
2022-12-11T10:59:06.745Z,800.00
2022-12-11T11:00:06.717Z,800.00
2022-12-11T11:01:06.696Z,820.00
2022-12-11T11:02:06.703Z,840.00
2022-12-11T11:03:06.744Z,856.00
2022-12-11T11:04:06.660Z,868.00
2022-12-11T11:05:06.657Z,884.00
2022-12-11T11:06:06.645Z,888.00
2022-12-11T11:07:06.608Z,868.00
2022-12-11T11:08:06.696Z,836.00
2022-12-11T11:09:06.642Z,820.00
2022-12-11T11:10:06.580Z,852.00
2022-12-11T11:11:06.569Z,888.00
2022-12-11T11:12:08.199Z,940.00
2022-12-11T11:13:06.528Z,992.00
2022-12-11T11:14:06.537Z,1028.00
2022-12-11T11:15:06.528Z,1040.00
2022-12-11T11:16:06.567Z,1012.00
2022-12-11T11:17:06.478Z,948.00
2022-12-11T11:18:06.478Z,884.00
2022-12-11T11:19:06.459Z,876.00
2022-12-11T11:20:06.458Z,924.00
2022-12-11T11:21:06.450Z,944.00
2022-12-11T11:22:06.415Z,888.00
2022-12-11T11:23:06.401Z,796.00
2022-12-11T11:24:06.412Z,736.00
2022-12-11T11:25:06.412Z,736.00
2022-12-11T11:26:06.359Z,736.00
2022-12-11T11:27:14.050Z,724.00
2022-12-11T11:28:07.335Z,716.00
2022-12-11T11:29:06.319Z,692.00
2022-12-11T11:30:06.342Z,664.00
2022-12-11T11:31:06.315Z,660.00
2022-12-11T11:32:06.278Z,668.00
2022-12-11T11:33:06.305Z,688.00
2022-12-11T11:34:06.258Z,696.00
2022-12-11T11:35:06.266Z,684.00
2022-12-11T11:36:06.238Z,680.00
2022-12-11T11:37:06.225Z,676.00
2022-12-11T11:38:06.217Z,688.00
2022-12-11T11:39:06.207Z,744.00
2022-12-11T11:40:06.197Z,836.00
2022-12-11T11:41:11.546Z,868.00
2022-12-11T11:42:07.157Z,784.00
2022-12-11T11:43:06.150Z,744.00
2022-12-11T11:44:06.138Z,804.00
2022-12-11T11:45:06.149Z,908.00
2022-12-11T11:46:06.180Z,960.00
2022-12-11T11:47:06.092Z,908.00
2022-12-11T11:48:11.100Z,860.00
2022-12-11T11:49:07.067Z,812.00
2022-12-11T11:50:06.104Z,828.00
2022-12-11T11:51:06.036Z,872.00
2022-12-11T11:52:06.018Z,856.00
2022-12-11T11:53:06.019Z,832.00
2022-12-11T11:54:06.007Z,816.00
2022-12-11T11:55:06.006Z,776.00
2022-12-11T11:56:05.969Z,732.00
2022-12-11T11:57:05.968Z,696.00
2022-12-11T11:58:05.941Z,688.00
2022-12-11T11:59:05.935Z,668.00
2022-12-11T12:00:05.942Z,648.00
2022-12-11T12:01:05.906Z,652.00
2022-12-11T12:02:05.896Z,692.00
2022-12-11T12:03:05.976Z,748.00
2022-12-11T12:04:12.918Z,772.00
2022-12-11T12:05:13.137Z,720.00
2022-12-11T12:06:05.838Z,704.00
2022-12-11T12:07:05.829Z,748.00
2022-12-11T12:08:05.867Z,816.00
2022-12-11T12:09:05.806Z,912.00
2022-12-11T12:10:05.895Z,944.00
2022-12-11T12:11:05.798Z,880.00
2022-12-11T12:12:05.767Z,860.00
2022-12-11T12:13:10.841Z,840.00
2022-12-11T12:14:22.753Z,808.00
2022-12-11T12:15:06.746Z,796.00
2022-12-11T12:16:22.914Z,756.00
2022-12-11T12:17:06.775Z,732.00
2022-12-11T12:18:05.678Z,732.00
2022-12-11T12:19:05.667Z,736.00
2022-12-11T12:20:05.658Z,724.00
2022-12-11T12:21:05.686Z,704.00
2022-12-11T12:22:05.658Z,684.00
2022-12-11T12:23:05.619Z,680.00
2022-12-11T12:24:05.603Z,768.00
2022-12-11T12:25:05.607Z,800.00
2022-12-11T12:26:05.575Z,796.00
2022-12-11T12:27:22.896Z,820.00
2022-12-11T12:28:06.549Z,808.00
2022-12-11T12:29:05.537Z,804.00
2022-12-11T12:30:05.569Z,816.00
2022-12-11T12:31:05.544Z,820.00
2022-12-11T12:32:05.510Z,780.00
2022-12-11T12:33:05.487Z,748.00
2022-12-11T12:34:05.495Z,740.00
2022-12-11T12:35:05.507Z,740.00
2022-12-11T12:36:07.275Z,736.00
2022-12-11T12:37:05.443Z,768.00
2022-12-11T12:38:05.427Z,812.00
2022-12-11T12:39:05.408Z,860.00
2022-12-11T12:40:05.405Z,908.00
2022-12-11T12:41:05.445Z,900.00
2022-12-11T12:42:07.774Z,732.00
2022-12-11T12:43:05.375Z,648.00
2022-12-11T12:44:05.422Z,576.00
2022-12-11T12:45:05.374Z,544.00
2022-12-11T12:46:05.401Z,540.00
2022-12-11T12:47:05.319Z,552.00
2022-12-11T12:48:05.288Z,576.00
2022-12-11T12:49:05.277Z,620.00
2022-12-11T12:50:05.283Z,688.00
2022-12-11T12:51:05.257Z,752.00
2022-12-11T12:52:05.237Z,800.00
2022-12-11T12:53:05.228Z,828.00
2022-12-11T12:54:10.660Z,808.00
2022-12-11T12:55:06.226Z,800.00
2022-12-11T12:56:05.205Z,840.00